Nearby METAR Reports

METAR is the scheduled surface weather observation taken hourly at civil and military airport locations.

METAR is an acronym from the French language and roughly translates as Aviation Routine Weather Report.

 

EGPL - Benbecula Island, United Kingdom
Distance from station: WNW 41mi, 66km
Updated: 19/09/2019 16:20
Partly cloudy
Partly cloudy
 Wind from SSW
Wind: SSW 14 mph , 22 km/h
Temperature: 14°C
Dew Point: 11°C
Humidity: 82%
Barometer: 1028 hPa
Clouds: Partly cloudy
Visibility: 6 miles , 10 km
Cloud details: Few Clouds 366 m
Partly cloudy 549 m
2019/09/19 15:20 EGPL 191520Z 21012KT 9999 FEW012 SCT018 14/11 Q1028
EGPU - Tiree Island, United Kingdom
Distance from station: SSW 56mi, 90km
Updated: 19/09/2019 15:50
Few Clouds
Few Clouds
 Wind from S
Wind: S 9 mph , 15 km/h
Temperature: 14°C
Dew Point: 11°C
Humidity: 82%
Barometer: 1029 hPa
Clouds: Few Clouds
Visibility: 6 miles , 10 km
Cloud details: Few Clouds 396 m
2019/09/19 14:50 EGPU 191450Z 17008KT 140V200 9999 FEW013 14/11 Q1029
 
EGEO - Oban Airport, United Kingdom
Distance from station: SE 65mi, 105km
Updated: 16/09/2019 15:50
NOT Current
Mostly cloudy
Mostly cloudy
 Wind from W
Wind: W 20 mph , 31 km/h
Temperature: 14°C
Dew Point: 9°C
Humidity: 72%
Barometer: 1022 hPa
Clouds: Mostly cloudy
Visibility: 6 miles , 10 km
Cloud details: Mostly cloudy 945 m
2019/09/16 14:50 EGEO 161450Z 28017KT 9999 BKN031 14/09 Q1022
EGPO - Stornoway, United Kingdom
Distance from station: 0 66mi, 106km
Updated: 19/09/2019 16:20
Few Clouds
Few Clouds
 Wind from SW
Wind: SW 10 mph , 17 km/h
Temperature: 16°C
Dew Point: 10°C
Humidity: 68%
Barometer: 1027 hPa
Clouds: Few Clouds
Visibility: 6 miles , 10 km
Cloud details: Few Clouds 366 m
2019/09/19 15:20 EGPO 191520Z 23009KT 9999 FEW012 16/10 Q1027
 
EGPE - Inverness/Dalcro, United Kingdom
Distance from station: ENE 88mi, 141km
Updated: 19/09/2019 16:20
Few Clouds
Few Clouds
 Wind from SW
Wind: SW 13 mph , 20 km/h
Temperature: 19°C
Dew Point: 14°C
Humidity: 73%
Barometer: 1027 hPa
Clouds: Few Clouds
Visibility: 6 miles , 10 km
Cloud details: Few Clouds 366 m
2019/09/19 15:20 EGPE 191520Z 23011KT 9999 FEW012 19/14 Q1027
EGQA - Tain Range (saws, United Kingdom
Distance from station: ENE 97mi, 156km
Updated: 19/09/2019 12:50
NOT Current
Mostly cloudy
Mostly cloudy
 Wind from calm
Wind: Calm
Clouds: Mostly cloudy
Visibility: 6 miles , 10 km
Cloud details: Few Clouds 396 m
Mostly cloudy 701 m
2019/09/19 11:50 EGQA 191150Z 00000KT 9999 FEW013 BKN023 15/// Q1029 WHT
 
EGQK - Kinloss Raf, United Kingdom
Distance from station: ENE 107mi, 171km
Updated: 19/09/2019 15:50
Few Clouds
Few Clouds
 Wind from W
Wind: W 9 mph , 15 km/h
Temperature: 19°C
Dew Point: 14°C
Humidity: 73%
Barometer: 1027 hPa
Clouds: Few Clouds
Visibility: 6 miles , 10 km
Cloud details: Few Clouds 853 m
2019/09/19 14:50 EGQK 191450Z AUTO 28008KT 9999 FEW028/// 19/14 Q1027
EGPI - Islay/Port Ellen, United Kingdom
Distance from station: S 110mi, 177km
Updated: 19/09/2019 16:20
Clear
Clear
 Wind from varies
Wind: varies 3 mph , 6 km/h
Temperature: 17°C
Dew Point: 12°C
Humidity: 73%
Barometer: 1029 hPa
Summary: Clear
Visibility: greater than 7 miles , 10 km
2019/09/19 15:20 EGPI 191520Z VRB03KT CAVOK 17/12 Q1029
 
EGQS - Lossiemouth Raf, United Kingdom
Distance from station: ENE 117mi, 188km
Updated: 19/09/2019 16:19
Mostly cloudy
Mostly cloudy
 Wind from WNW
Wind: WNW 12 mph , 19 km/h
Temperature: 16°C
Dew Point: 12°C
Humidity: 77%
Barometer: 1027 hPa
Clouds: Mostly cloudy
Visibility: 6 miles , 10 km
Cloud details: Few Clouds 914 m
Mostly cloudy 7620 m
2019/09/19 15:19 EGQS 191519Z 30010KT 9999 FEW030 BKN250 16/12 Q1027 NOSIG RMK BLU BLU
EGPF - Glasgow Airport, United Kingdom
Distance from station: SE 121mi, 195km
Updated: 19/09/2019 16:20
Clear
Clear
 Wind from SW
Wind: SW 9 mph , 15 km/h
Temperature: 18°C
Dew Point: 13°C
Humidity: 73%
Barometer: 1029 hPa
Clouds: Clear
Visibility: 6 miles , 10 km
2019/09/19 15:20 EGPF 191520Z AUTO 23008KT 9999 NCD 18/13 Q1029
 
EGEC - Campbeltown, United Kingdom
Distance from station: SSE 129mi, 207km
Updated: 19/09/2019 16:20
Few Clouds
Few Clouds
 Wind from WNW
Wind: WNW 2 mph , 4 km/h
Temperature: 18°C
Dew Point: 12°C
Humidity: 68%
Barometer: 1029 hPa
Clouds: Few Clouds
Visibility: 6 miles , 10 km
Cloud details: Few Clouds 975 m
2019/09/19 15:20 EGEC 191520Z 29002KT 9999 FEW032 18/12 Q1029
EGPN - Dundee/Riverside, United Kingdom
Distance from station: ESE 137mi, 221km
Updated: 19/09/2019 16:20
Few Clouds
Few Clouds
 Wind from SW
Wind: SW 10 mph , 17 km/h
Temperature: 18°C
Dew Point: 14°C
Humidity: 78%
Barometer: 1027 hPa
Clouds: Few Clouds
Visibility: 6 miles , 10 km
Cloud details: Few Clouds 396 m
2019/09/19 15:20 EGPN 191520Z 23009KT 9999 FEW013 18/14 Q1027
 
EGPK - Prestwick(Civ/Na, United Kingdom
Distance from station: SSE 139mi, 224km
Updated: 19/09/2019 16:20
Few Clouds
Few Clouds
 Wind from WSW
Wind: WSW 7 mph , 11 km/h
Temperature: 17°C
Dew Point: 13°C
Humidity: 77%
Barometer: 1030 hPa
Clouds: Few Clouds
Visibility: 6 miles , 10 km
Cloud details: Few Clouds 488 m
2019/09/19 15:20 EGPK 191520Z 24006KT 210V270 9999 FEW016 17/13 Q1030
EGQL - Leuchars Raf, United Kingdom
Distance from station: ESE 145mi, 233km
Updated: 19/09/2019 15:50
Clear
Clear
 Wind from WSW
Wind: WSW 12 mph , 19 km/h, Gust: 24 mph , 39 km/h
Temperature: 19°C
Dew Point: 13°C
Humidity: 68%
Barometer: 1027 hPa
Summary: Clear
Visibility: greater than 7 miles , 10 km
2019/09/19 14:50 EGQL 191450Z 25010G21KT CAVOK 19/13 Q1027 RMK BLU
 
EGPH - Edinburgh Airpor, United Kingdom
Distance from station: SE 145mi, 234km
Updated: 19/09/2019 16:20
Clear
Clear
 Wind from W
Wind: W 12 mph , 19 km/h
Temperature: 19°C
Dew Point: 11°C
Humidity: 60%
Barometer: 1028 hPa
Summary: Clear
Visibility: greater than 7 miles , 10 km
2019/09/19 15:20 EGPH 191520Z 26010KT 240V300 CAVOK 19/11 Q1028
EGPC - Wick, United Kingdom
Distance from station: NE 146mi, 234km
Updated: 19/09/2019 16:20
Mostly cloudy
Mostly cloudy
 Wind from NW
Wind: NW 8 mph , 13 km/h
Temperature: 14°C
Dew Point: 12°C
Humidity: 88%
Barometer: 1027 hPa
Clouds: Mostly cloudy
Visibility: 6 miles , 10 km
Cloud details: Few Clouds 274 m
Mostly cloudy 640 m
2019/09/19 15:20 EGPC 191520Z 32007KT 9999 FEW009 BKN021 14/12 Q1027

-

free counters
QR Code Twitter Scottish Weather Network UK Weather Network
Argyll House B & B

Argyll House B & B is situated in North West Skye and is the perfect base to see all that the Isle of Skye has to offer. We are just about full for 2019. Bookings are been taken for 2020.